Time;durP1;ratioP1;P1;durP2;ratioP2;P2;SDS_P1;SDS_P2;PMS_P1;PMS_P2;Temp;Humidity;BMP_temperature;BMP_pressure;BME280_temperature;BME280_humidity;BME280_pressure;Samples;Min_cycle;Max_cycle;Signal;HPM_P1;HPM_P2
2022/01/12 05:01:36;;;;;;;26.40;12.90;;;-3.20;99.90;;;;;;5512452;22;92442;-74
2022/01/12 05:07:59;;;;;;;24.42;12.10;;;-3.40;99.90;;;;;;4996944;28;89376;-75
2022/01/12 05:09:50;;;;;;;23.52;11.38;;;-3.50;99.90;;;;;;5011321;28;89280;-74
2022/01/12 05:15:07;;;;;;;21.42;12.02;;;-3.50;99.90;;;;;;4998657;28;89369;-73
2022/01/12 05:17:34;;;;;;;25.98;12.95;;;-3.50;99.90;;;;;;4994197;28;93131;-75
2022/01/12 05:19:59;;;;;;;25.13;12.18;;;-3.60;99.90;;;;;;4977760;28;89303;-73
2022/01/12 05:22:25;;;;;;;24.60;13.13;;;-3.60;99.90;;;;;;4977491;28;89664;-73
2022/01/12 05:24:51;;;;;;;23.30;12.43;;;-3.60;99.90;;;;;;4986420;28;90267;-73
2022/01/12 05:27:16;;;;;;;23.05;12.48;;;-3.60;99.90;;;;;;4997523;28;89378;-73
2022/01/12 05:29:42;;;;;;;23.38;11.77;;;-3.60;99.90;;;;;;4997253;28;89950;-76
2022/01/12 05:32:10;;;;;;;25.23;12.73;;;-3.70;99.90;;;;;;4996828;28;89777;-75
2022/01/12 05:34:37;;;;;;;26.25;12.95;;;-3.80;99.90;;;;;;4997609;28;89328;-75
2022/01/12 05:37:03;;;;;;;24.25;13.02;;;-3.70;99.90;;;;;;4997510;28;89636;-75
2022/01/12 05:39:28;;;;;;;26.92;13.55;;;-3.60;99.90;;;;;;4979681;28;90784;-73
2022/01/12 05:41:54;;;;;;;24.02;13.27;;;-3.60;99.90;;;;;;4977641;28;90376;-74
2022/01/12 05:44:22;;;;;;;24.25;13.15;;;-3.60;99.90;;;;;;4977368;28;89323;-73
2022/01/12 05:46:48;;;;;;;29.67;14.32;;;-3.60;99.90;;;;;;4977668;28;89634;-73
2022/01/12 05:51:57;;;;;;;21.55;13.10;;;-3.50;99.90;;;;;;4989289;28;90378;-73
2022/01/12 05:54:23;;;;;;;26.77;13.60;;;-3.60;99.90;;;;;;4975879;28;89303;-73
2022/01/12 05:56:49;;;;;;;25.95;13.73;;;-3.70;99.90;;;;;;4976938;28;89630;-73
2022/01/12 05:59:14;;;;;;;25.90;14.23;;;-3.50;99.90;;;;;;4992471;28;89185;-73
2022/01/12 06:01:40;;;;;;;24.00;13.10;;;-3.50;99.90;;;;;;4999547;28;89239;-74
2022/01/12 06:04:05;;;;;;;28.65;13.70;;;-3.50;99.90;;;;;;4998496;28;89179;-74
2022/01/12 06:06:31;;;;;;;23.58;12.27;;;-3.40;99.90;;;;;;4988272;28;91493;-74
2022/01/12 06:08:56;;;;;;;26.55;13.82;;;-3.40;99.90;;;;;;4977559;28;91872;-76
2022/01/12 06:11:23;;;;;;;23.70;13.23;;;-3.50;99.90;;;;;;4977015;28;91670;-75
2022/01/12 06:13:50;;;;;;;25.92;12.85;;;-3.20;99.90;;;;;;4978959;28;90375;-76
2022/01/12 06:16:15;;;;;;;25.60;14.23;;;-3.20;99.90;;;;;;4976889;28;89892;-75
2022/01/12 06:18:41;;;;;;;30.42;14.15;;;-3.20;99.90;;;;;;4992966;28;89841;-75
2022/01/12 06:21:06;;;;;;;22.70;12.00;;;-3.10;99.90;;;;;;4998597;28;92221;-75
2022/01/12 06:23:32;;;;;;;26.02;13.93;;;-3.20;99.90;;;;;;5000397;28;89310;-76
2022/01/12 06:25:58;;;;;;;31.77;14.25;;;-3.20;99.90;;;;;;5000109;28;90063;-76
2022/01/12 06:28:37;;;;;;;27.65;14.35;;;-3.00;99.90;;;;;;4987376;28;93142;-75
2022/01/12 06:31:11;;;;;;;28.40;14.13;;;-2.90;99.90;;;;;;4978821;28;92476;-75
2022/01/12 06:33:42;;;;;;;26.73;13.98;;;-2.80;99.90;;;;;;4980290;28;89179;-76
2022/01/12 06:36:08;;;;;;;27.85;13.25;;;-2.90;99.90;;;;;;4980634;28;90235;-75
2022/01/12 06:38:34;;;;;;;25.95;13.63;;;-2.90;99.90;;;;;;4993496;28;90948;-75
2022/01/12 06:41:00;;;;;;;29.38;15.52;;;-2.90;99.90;;;;;;4998407;28;92691;-75
2022/01/12 06:43:27;;;;;;;28.13;14.52;;;-2.90;99.90;;;;;;4993232;28;89697;-76
2022/01/12 06:45:54;;;;;;;25.05;14.13;;;-2.90;99.90;;;;;;4982163;28;92706;-76
2022/01/12 06:48:19;;;;;;;30.60;16.20;;;-2.90;99.90;;;;;;4998018;28;89745;-74
2022/01/12 06:50:45;;;;;;;30.75;16.42;;;-2.90;99.90;;;;;;4996809;28;89922;-77
2022/01/12 06:53:11;;;;;;;29.58;15.38;;;-2.80;99.90;;;;;;4987051;28;89402;-75
2022/01/12 06:55:39;;;;;;;28.55;14.73;;;-2.80;99.90;;;;;;5001934;28;89402;-77
2022/01/12 06:58:05;;;;;;;28.00;14.15;;;-2.90;99.90;;;;;;5001433;28;89410;-78
2022/01/12 07:00:30;;;;;;;27.52;14.50;;;-2.90;99.90;;;;;;5003627;28;89312;-78
2022/01/12 07:02:56;;;;;;;26.90;14.75;;;-2.80;99.90;;;;;;4999285;28;90034;-78
2022/01/12 07:05:21;;;;;;;29.50;15.40;;;-2.70;99.90;;;;;;4981558;28;90831;-75
2022/01/12 07:07:47;;;;;;;29.50;16.25;;;-2.60;99.90;;;;;;4984901;28;89407;-76
2022/01/12 07:10:12;;;;;;;30.30;16.83;;;-2.50;99.90;;;;;;4980412;28;89988;-76
2022/01/12 07:12:38;;;;;;;31.33;16.10;;;-2.40;99.90;;;;;;4980114;28;89380;-76
2022/01/12 07:15:04;;;;;;;30.48;15.80;;;-2.30;99.90;;;;;;4980507;28;89774;-77
2022/01/12 07:17:30;;;;;;;27.42;15.38;;;-2.30;99.90;;;;;;4983392;28;90552;-78
2022/01/12 07:19:55;;;;;;;34.05;17.75;;;-2.20;99.90;;;;;;4996573;28;89022;-76
2022/01/12 07:22:21;;;;;;;32.70;15.32;;;-2.30;99.90;;;;;;4980360;28;89215;-77
2022/01/12 07:24:46;;;;;;;27.35;15.75;;;-2.20;99.90;;;;;;4980367;28;89920;-76
2022/01/12 07:27:12;;;;;;;26.67;14.45;;;-2.20;99.90;;;;;;4980542;28;91097;-76
2022/01/12 07:29:37;;;;;;;25.13;14.30;;;-2.20;99.90;;;;;;4980553;28;91206;-75
2022/01/12 07:32:03;;;;;;;30.13;16.40;;;-2.20;99.90;;;;;;4991095;28;89646;-76
2022/01/12 07:34:29;;;;;;;28.67;15.15;;;-2.10;99.90;;;;;;4984607;28;93384;-75
2022/01/12 07:36:55;;;;;;;45.65;26.75;;;-2.10;99.90;;;;;;4980961;28;89423;-76
2022/01/12 07:39:20;;;;;;;37.47;22.40;;;-2.10;99.90;;;;;;4999167;28;90198;-74
2022/01/12 07:41:46;;;;;;;27.73;15.75;;;-2.20;99.90;;;;;;5000470;28;89027;-75
2022/01/12 07:44:11;;;;;;;27.70;14.68;;;-2.10;99.90;;;;;;4995033;28;92611;-75
2022/01/12 07:46:38;;;;;;;25.70;14.15;;;-2.20;99.90;;;;;;5000570;28;91054;-76
2022/01/12 07:49:06;;;;;;;23.17;13.85;;;-2.10;99.90;;;;;;4993050;28;90220;-75
2022/01/12 07:51:32;;;;;;;28.50;15.95;;;-1.90;99.90;;;;;;4983686;28;90253;-76
2022/01/12 07:53:57;;;;;;;28.33;15.38;;;-1.90;99.90;;;;;;4999765;28;90221;-76
2022/01/12 07:56:23;;;;;;;28.38;16.05;;;-1.80;99.90;;;;;;4983085;28;90172;-75
2022/01/12 07:58:48;;;;;;;29.30;16.85;;;-1.70;99.90;;;;;;4991118;28;91024;-75
2022/01/12 08:01:14;;;;;;;30.75;18.15;;;-1.70;99.90;;;;;;4977695;28;89243;-75
2022/01/12 08:03:39;;;;;;;28.05;16.75;;;-1.70;99.90;;;;;;4978413;28;89289;-74
2022/01/12 08:06:05;;;;;;;31.75;17.25;;;-1.70;99.90;;;;;;4993817;28;89900;-75
2022/01/12 08:08:31;;;;;;;25.08;15.50;;;-1.70;99.90;;;;;;4982020;28;89808;-76
2022/01/12 08:10:56;;;;;;;25.02;15.00;;;-1.60;99.90;;;;;;4978138;28;89430;-76
2022/01/12 08:13:22;;;;;;;26.35;16.42;;;-1.50;99.90;;;;;;4978101;28;89776;-76
2022/01/12 08:15:47;;;;;;;31.08;17.25;;;-1.40;99.90;;;;;;4973219;28;90883;-76
2022/01/12 08:18:13;;;;;;;23.73;15.13;;;-1.20;99.90;;;;;;4978346;28;90757;-75
2022/01/12 08:20:38;;;;;;;25.08;15.95;;;-1.20;99.90;;;;;;4980098;28;89252;-75
2022/01/12 08:23:04;;;;;;;28.83;15.82;;;-1.10;99.90;;;;;;4977931;28;91379;-75
2022/01/12 08:25:30;;;;;;;24.10;14.73;;;-1.10;99.90;;;;;;4978382;28;89785;-76
2022/01/12 08:27:56;;;;;;;25.23;14.73;;;-1.00;99.90;;;;;;4975705;28;90585;-76
2022/01/12 08:30:28;;;;;;;30.70;18.08;;;-0.90;99.90;;;;;;4972210;28;89375;-76
2022/01/12 08:32:54;;;;;;;29.65;19.10;;;-0.90;99.90;;;;;;4971915;28;93098;-75
2022/01/12 08:35:20;;;;;;;26.48;15.95;;;-0.80;99.90;;;;;;4977778;28;90630;-75
2022/01/12 08:37:46;;;;;;;27.75;14.98;;;-0.70;99.90;;;;;;4978093;28;89613;-76
2022/01/12 08:40:15;;;;;;;28.92;15.95;;;-0.70;99.90;;;;;;4977233;28;90173;-76
2022/01/12 08:42:41;;;;;;;27.15;15.60;;;-0.70;99.90;;;;;;4969765;28;92288;-75
2022/01/12 08:45:07;;;;;;;26.30;14.95;;;-0.70;99.90;;;;;;4978185;28;90371;-75
2022/01/12 08:47:33;;;;;;;23.65;14.70;;;-0.80;99.90;;;;;;4980624;28;89354;-77
2022/01/12 08:49:59;;;;;;;20.17;13.00;;;-0.80;99.90;;;;;;4978122;28;89316;-80
2022/01/12 08:52:27;;;;;;;21.02;13.23;;;-0.90;99.90;;;;;;4979146;28;91815;-76
2022/01/12 08:54:53;;;;;;;24.50;14.05;;;-1.00;99.90;;;;;;4979222;28;89742;-74
2022/01/12 08:57:18;;;;;;;23.80;14.27;;;-1.00;99.90;;;;;;4978450;28;90152;-75
2022/01/12 08:59:44;;;;;;;23.95;14.48;;;-1.00;99.90;;;;;;4978280;28;89309;-75
2022/01/12 09:02:13;;;;;;;24.38;14.23;;;-1.00;99.90;;;;;;4976919;28;89426;-75
2022/01/12 09:04:38;;;;;;;28.17;15.68;;;-1.00;99.90;;;;;;4976077;28;90675;-75
2022/01/12 09:07:04;;;;;;;23.60;14.63;;;-1.00;99.90;;;;;;4977620;28;91777;-74
2022/01/12 09:09:30;;;;;;;23.63;14.70;;;-0.90;99.90;;;;;;4977718;28;89491;-74
2022/01/12 09:11:57;;;;;;;23.35;14.70;;;-0.90;99.90;;;;;;4976495;28;89771;-74
2022/01/12 09:14:22;;;;;;;26.02;15.48;;;-0.90;99.90;;;;;;4972618;28;91068;-74
2022/01/12 09:16:54;;;;;;;25.48;15.07;;;-0.80;99.90;;;;;;4970147;28;90983;-74
2022/01/12 09:19:20;;;;;;;24.92;15.13;;;-0.80;99.90;;;;;;4975701;28;89341;-74
2022/01/12 09:21:46;;;;;;;21.45;14.27;;;-0.80;99.90;;;;;;4973415;28;92392;-75
2022/01/12 09:24:11;;;;;;;22.25;14.50;;;-0.70;99.90;;;;;;4977320;28;91987;-74
2022/01/12 09:26:37;;;;;;;23.30;14.63;;;-0.70;99.90;;;;;;4976817;28;89766;-75
2022/01/12 09:29:03;;;;;;;24.52;14.38;;;-0.70;99.90;;;;;;4977387;28;90189;-74
2022/01/12 09:31:28;;;;;;;24.17;14.82;;;-0.60;99.90;;;;;;4981906;28;89470;-75
2022/01/12 09:33:54;;;;;;;26.45;14.52;;;-0.50;99.90;;;;;;4977870;28;89166;-75
2022/01/12 09:36:20;;;;;;;22.63;13.82;;;-0.50;99.90;;;;;;4981009;28;90060;-75
2022/01/12 09:38:45;;;;;;;20.45;13.93;;;-0.30;99.90;;;;;;4980617;28;89417;-75
2022/01/12 09:41:11;;;;;;;22.35;13.60;;;-0.10;99.90;;;;;;4982891;28;89747;-75
2022/01/12 09:43:38;;;;;;;20.95;13.43;;;-0.10;99.90;;;;;;4993193;28;89425;-76
2022/01/12 09:46:04;;;;;;;20.00;13.68;;;0.00;99.90;;;;;;4996430;28;90890;-74
2022/01/12 09:48:33;;;;;;;21.17;13.82;;;0.00;99.90;;;;;;4996108;28;89448;-74
2022/01/12 09:51:03;;;;;;;22.27;14.15;;;0.10;99.90;;;;;;4995535;28;90724;-75
2022/01/12 09:53:34;;;;;;;20.65;14.00;;;0.20;99.90;;;;;;4995747;28;90248;-75
2022/01/12 09:56:08;;;;;;;20.70;13.70;;;0.30;99.90;;;;;;4980417;28;90675;-74
2022/01/12 09:58:34;;;;;;;20.98;13.95;;;0.30;99.90;;;;;;4978736;28;89361;-76
2022/01/12 10:01:02;;;;;;;20.30;13.07;;;0.30;99.90;;;;;;5009369;28;89008;-75
2022/01/12 10:03:27;;;;;;;20.00;13.10;;;0.30;99.90;;;;;;5013662;28;91548;-75
2022/01/12 10:05:54;;;;;;;21.45;13.50;;;0.30;99.90;;;;;;4996941;28;89643;-75
2022/01/12 10:08:20;;;;;;;19.50;12.57;;;0.30;99.90;;;;;;4977810;28;89272;-75
2022/01/12 10:11:12;;;;;;;21.50;13.48;;;0.30;99.90;;;;;;4978164;28;89621;-75
2022/01/12 10:13:40;;;;;;;18.90;12.57;;;0.30;99.90;;;;;;4977473;28;90475;-75
2022/01/12 10:16:15;;;;;;;22.92;13.82;;;0.30;99.90;;;;;;4977687;28;89820;-74
2022/01/12 10:18:45;;;;;;;21.15;13.73;;;0.30;99.90;;;;;;4977518;28;90264;-75
2022/01/12 10:21:11;;;;;;;19.27;13.40;;;0.40;99.90;;;;;;4995239;28;89277;-74
2022/01/12 10:23:40;;;;;;;20.33;13.02;;;0.40;99.90;;;;;;4996858;28;89358;-75
2022/01/12 10:26:06;;;;;;;21.52;12.30;;;0.50;99.90;;;;;;4994001;28;89307;-74
2022/01/12 10:28:35;;;;;;;21.00;13.07;;;0.50;99.90;;;;;;4976251;28;89374;-74
2022/01/12 10:31:02;;;;;;;22.50;13.38;;;0.60;99.90;;;;;;4978163;28;90337;-74
2022/01/12 10:33:36;;;;;;;20.95;12.68;;;0.70;99.90;;;;;;4976412;28;90150;-74
2022/01/12 10:36:07;;;;;;;20.83;12.77;;;0.80;99.90;;;;;;4991709;28;89134;-74
2022/01/12 10:38:33;;;;;;;17.52;11.63;;;0.80;99.90;;;;;;4996002;28;89564;-74
2022/01/12 10:41:02;;;;;;;14.68;9.55;;;0.90;99.90;;;;;;4996674;28;89638;-74
2022/01/12 10:43:42;;;;;;;14.23;9.77;;;1.00;99.90;;;;;;4992126;28;90346;-74
2022/01/12 10:46:15;;;;;;;14.65;10.20;;;1.00;99.90;;;;;;4984539;28;93059;-74
2022/01/12 10:48:52;;;;;;;18.30;10.73;;;1.10;99.90;;;;;;4996712;28;89299;-75
2022/01/12 10:51:20;;;;;;;16.98;11.68;;;1.20;99.90;;;;;;4996465;28;89640;-79
2022/01/12 10:53:47;;;;;;;15.27;10.75;;;1.10;99.90;;;;;;4996526;28;89895;-77
2022/01/12 10:56:21;;;;;;;16.25;11.20;;;1.20;99.90;;;;;;4994931;28;91692;-75
2022/01/12 10:58:49;;;;;;;20.90;12.07;;;1.20;99.90;;;;;;4981816;28;89192;-74
2022/01/12 11:01:17;;;;;;;17.00;11.63;;;1.30;99.90;;;;;;4976277;28;89849;-76
2022/01/12 11:03:43;;;;;;;19.17;12.05;;;1.30;99.90;;;;;;4976827;28;89884;-78
2022/01/12 11:06:10;;;;;;;17.00;11.90;;;1.40;99.90;;;;;;4979890;28;89136;-77
2022/01/12 11:08:37;;;;;;;16.42;11.60;;;1.40;99.90;;;;;;4980265;28;90150;-78
2022/01/12 11:11:03;;;;;;;17.13;12.05;;;1.40;99.90;;;;;;4979443;28;92572;-77
2022/01/12 11:13:31;;;;;;;16.67;12.00;;;1.40;99.90;;;;;;4979482;28;92831;-76
2022/01/12 11:15:56;;;;;;;17.90;12.65;;;1.40;99.90;;;;;;5034024;22;89200;-73
2022/01/12 11:18:28;;;;;;;16.92;11.75;;;1.40;99.90;;;;;;5018875;28;89394;-74
2022/01/12 11:20:59;;;;;;;16.35;11.32;;;1.40;99.90;;;;;;4998961;28;90149;-74
2022/01/12 11:23:40;;;;;;;20.67;12.88;;;1.50;99.90;;;;;;4999283;28;90175;-74
2022/01/12 11:26:32;;;;;;;20.17;12.88;;;1.50;99.90;;;;;;5014800;28;89968;-74
2022/01/12 11:28:58;;;;;;;19.27;13.52;;;1.60;99.90;;;;;;5016856;28;89563;-75
2022/01/12 11:31:31;;;;;;;18.83;11.80;;;1.60;99.90;;;;;;5019519;28;90016;-72
2022/01/12 11:33:57;;;;;;;16.10;11.70;;;1.70;99.90;;;;;;5018558;28;90266;-73
2022/01/12 11:36:39;;;;;;;15.55;11.32;;;1.80;99.90;;;;;;5016894;28;93389;-72
2022/01/12 11:39:07;;;;;;;16.42;11.27;;;1.90;99.90;;;;;;5018612;28;89270;-74
2022/01/12 11:41:34;;;;;;;16.73;11.77;;;2.00;99.90;;;;;;5018430;28;89421;-74
2022/01/12 11:44:08;;;;;;;18.02;11.82;;;2.00;99.90;;;;;;5017013;28;92661;-76
2022/01/12 11:46:51;;;;;;;15.85;11.20;;;2.10;99.90;;;;;;5019462;28;89251;-72
2022/01/12 11:49:29;;;;;;;16.27;11.60;;;2.10;99.90;;;;;;5020080;28;89616;-74
2022/01/12 11:51:59;;;;;;;14.63;11.00;;;2.20;99.90;;;;;;5019457;28;89885;-71
2022/01/12 11:54:33;;;;;;;15.85;10.98;;;2.20;99.90;;;;;;5018982;28;89876;-71
2022/01/12 11:57:01;;;;;;;15.60;11.02;;;2.20;99.90;;;;;;5018611;28;89427;-74
2022/01/12 11:59:29;;;;;;;15.63;10.55;;;2.30;99.90;;;;;;5018440;28;90261;-72
2022/01/12 12:02:14;;;;;;;14.20;9.95;;;2.30;99.90;;;;;;5018866;28;89278;-72
2022/01/12 12:04:55;;;;;;;14.43;10.00;;;2.40;99.90;;;;;;5018734;28;89348;-72
2022/01/12 12:07:23;;;;;;;13.68;9.63;;;2.40;99.90;;;;;;5018834;28;89595;-71
2022/01/12 12:09:56;;;;;;;12.80;9.57;;;2.50;99.90;;;;;;5018986;28;89342;-75
2022/01/12 12:12:33;;;;;;;15.95;10.68;;;2.50;99.90;;;;;;5017329;28;91464;-73
2022/01/12 12:15:05;;;;;;;14.48;10.35;;;2.60;99.90;;;;;;5017526;28;89428;-72
2022/01/12 12:17:34;;;;;;;13.50;9.80;;;2.70;99.90;;;;;;5014797;28;89892;-72
2022/01/12 12:20:01;;;;;;;15.20;10.05;;;2.80;99.90;;;;;;5017383;28;89175;-71
2022/01/12 12:22:30;;;;;;;12.77;9.38;;;2.80;99.90;;;;;;5018263;28;90555;-72
2022/01/12 12:25:23;;;;;;;13.50;10.00;;;2.90;99.90;;;;;;5017647;28;90343;-72
2022/01/12 12:27:58;;;;;;;14.10;9.98;;;2.90;99.90;;;;;;5015765;28;91104;-72
2022/01/12 12:30:25;;;;;;;15.90;10.68;;;2.90;99.90;;;;;;5017966;28;89299;-72
2022/01/12 12:32:55;;;;;;;14.70;10.20;;;3.00;99.90;;;;;;5018110;28;89383;-72
2022/01/12 12:35:29;;;;;;;16.25;9.50;;;3.00;99.90;;;;;;5017120;28;89274;-71
2022/01/12 12:38:02;;;;;;;15.70;9.75;;;3.10;99.90;;;;;;5018977;28;89718;-71
2022/01/12 12:40:35;;;;;;;14.73;10.60;;;3.10;99.90;;;;;;5019183;28;89245;-72
2022/01/12 12:43:32;;;;;;;12.73;9.57;;;3.00;99.90;;;;;;5018185;28;90449;-72
2022/01/12 12:46:00;;;;;;;13.50;9.00;;;3.00;99.90;;;;;;5018533;28;89946;-71
2022/01/12 12:48:33;;;;;;;11.95;8.80;;;3.20;99.90;;;;;;5018459;28;89224;-72
2022/01/12 12:51:05;;;;;;;12.73;8.70;;;3.30;99.90;;;;;;5016633;28;90732;-72
2022/01/12 12:53:34;;;;;;;13.40;9.50;;;3.30;99.90;;;;;;5018054;28;89261;-72
2022/01/12 12:56:00;;;;;;;14.07;9.45;;;3.30;99.90;;;;;;5017150;28;90886;-72
2022/01/12 12:58:29;;;;;;;11.80;8.73;;;3.40;99.90;;;;;;5016813;28;91969;-72
2022/01/12 13:01:10;;;;;;;12.25;8.43;;;3.50;99.90;;;;;;5018161;28;89340;-72
2022/01/12 13:03:37;;;;;;;10.90;8.35;;;3.50;99.90;;;;;;5018113;28;89469;-72
2022/01/12 13:06:02;;;;;;;12.45;8.88;;;3.40;99.90;;;;;;5018374;28;90447;-72
2022/01/12 13:08:28;;;;;;;12.98;9.63;;;3.40;99.90;;;;;;5018644;28;89718;-72
2022/01/12 13:10:54;;;;;;;11.88;8.65;;;3.40;99.90;;;;;;5009458;28;89475;-72
2022/01/12 13:13:20;;;;;;;11.77;9.05;;;3.30;99.90;;;;;;5009665;28;89331;-73
2022/01/12 13:15:46;;;;;;;13.27;9.02;;;3.30;99.90;;;;;;5010871;28;90362;-73
2022/01/12 13:18:19;;;;;;;14.57;9.95;;;3.20;99.90;;;;;;5007056;28;89419;-73
2022/01/12 13:23:39;;;;;;;14.85;10.32;;;3.10;99.90;;;;;;5014328;28;89135;-73
2022/01/12 13:26:07;;;;;;;15.40;10.05;;;2.90;99.90;;;;;;5014616;28;92173;-73
2022/01/12 13:28:35;;;;;;;13.10;9.23;;;2.70;99.90;;;;;;5016843;28;89748;-72
2022/01/12 13:31:03;;;;;;;15.82;10.57;;;2.70;99.90;;;;;;5017248;28;89613;-73
2022/01/12 13:33:31;;;;;;;21.65;13.50;;;2.70;99.90;;;;;;5007594;28;89901;-72
2022/01/12 13:35:59;;;;;;;15.95;11.10;;;2.70;99.90;;;;;;5005729;28;89363;-72
2022/01/12 13:38:30;;;;;;;15.57;10.93;;;2.70;99.90;;;;;;4997862;28;92753;-73
2022/01/12 13:41:06;;;;;;;15.10;10.93;;;2.70;99.90;;;;;;5009674;28;90737;-73
2022/01/12 13:43:31;;;;;;;15.50;11.00;;;2.60;99.90;;;;;;5017025;28;89141;-72
2022/01/12 13:46:11;;;;;;;16.40;10.93;;;2.70;99.90;;;;;;5016424;28;89264;-73
2022/01/12 13:48:40;;;;;;;18.17;12.10;;;2.70;99.90;;;;;;5016531;28;89264;-73
2022/01/12 13:51:06;;;;;;;18.73;12.45;;;2.60;99.90;;;;;;5017116;28;89174;-72
2022/01/12 13:53:36;;;;;;;19.30;12.38;;;2.70;99.90;;;;;;5017046;28;89931;-73
2022/01/12 13:56:03;;;;;;;19.60;11.85;;;2.60;99.90;;;;;;5017264;28;89985;-73
2022/01/12 13:58:31;;;;;;;24.17;13.25;;;2.60;99.90;;;;;;5017728;28;88940;-72
2022/01/12 14:01:00;;;;;;;21.67;12.65;;;2.70;99.90;;;;;;5017474;28;89244;-73
2022/01/12 14:03:26;;;;;;;31.55;15.90;;;2.70;99.90;;;;;;5015181;28;90727;-73
2022/01/12 14:05:59;;;;;;;19.15;12.80;;;2.80;99.90;;;;;;5015354;28;92198;-73
2022/01/12 14:08:41;;;;;;;21.05;13.10;;;2.90;99.90;;;;;;5015121;28;90651;-73
2022/01/12 14:11:07;;;;;;;17.85;11.80;;;3.00;99.90;;;;;;5016596;28;89200;-73
2022/01/12 14:13:40;;;;;;;17.17;11.55;;;3.00;99.90;;;;;;5016097;28;89658;-72
2022/01/12 14:16:11;;;;;;;18.65;12.07;;;3.10;99.90;;;;;;5016095;28;89471;-73
2022/01/12 14:18:37;;;;;;;15.48;11.27;;;3.20;99.90;;;;;;5015734;28;89323;-72
2022/01/12 14:21:21;;;;;;;18.27;11.85;;;3.20;99.90;;;;;;5016414;28;89490;-73
2022/01/12 14:23:47;;;;;;;17.55;11.15;;;3.20;99.90;;;;;;5016235;28;88972;-73
2022/01/12 14:26:30;;;;;;;18.17;12.35;;;3.30;99.90;;;;;;5016577;28;89349;-73
2022/01/12 14:28:57;;;;;;;18.30;12.20;;;3.40;99.90;;;;;;5016027;28;89657;-73
2022/01/12 14:31:24;;;;;;;16.60;11.98;;;3.40;99.90;;;;;;5015617;28;90172;-73
2022/01/12 14:33:51;;;;;;;18.02;11.82;;;3.40;99.90;;;;;;5016317;28;90260;-74
2022/01/12 14:36:18;;;;;;;16.33;11.98;;;3.50;99.90;;;;;;5015041;28;91936;-77
2022/01/12 14:38:44;;;;;;;19.35;12.05;;;3.50;99.90;;;;;;5016858;28;90157;-77
2022/01/12 14:41:10;;;;;;;16.92;11.90;;;3.50;99.90;;;;;;5019966;28;89296;-72
2022/01/12 14:43:37;;;;;;;19.23;13.75;;;3.40;99.90;;;;;;5020740;28;89180;-73
2022/01/12 14:46:02;;;;;;;27.42;16.20;;;3.30;99.90;;;;;;5021248;28;89977;-75
2022/01/12 14:48:28;;;;;;;66.00;36.58;;;3.20;99.90;;;;;;5018920;28;92572;-75
2022/01/12 14:50:56;;;;;;;27.33;15.73;;;3.10;99.90;;;;;;5020646;28;89472;-76
2022/01/12 14:53:22;;;;;;;31.33;18.40;;;3.00;99.90;;;;;;5020118;28;91227;-76
2022/01/12 14:55:51;;;;;;;36.47;23.10;;;2.90;99.90;;;;;;5020898;28;90301;-76
2022/01/12 14:58:18;;;;;;;25.63;15.82;;;2.90;99.90;;;;;;5020329;28;93046;-75
2022/01/12 15:00:44;;;;;;;32.13;18.85;;;2.80;99.90;;;;;;5020363;28;89583;-78
2022/01/12 15:03:11;;;;;;;32.58;19.77;;;2.80;99.90;;;;;;5007542;28;90167;-74
2022/01/12 15:05:40;;;;;;;24.42;15.63;;;2.70;99.90;;;;;;5014936;28;90090;-74
2022/01/12 15:08:06;;;;;;;22.00;15.25;;;2.70;99.90;;;;;;5005552;28;90317;-74
2022/01/12 15:10:32;;;;;;;22.50;15.38;;;2.60;99.90;;;;;;4999779;28;89235;-73
2022/01/12 15:13:13;;;;;;;20.15;13.85;;;2.60;99.90;;;;;;5000060;28;88960;-78
2022/01/12 15:15:39;;;;;;;22.27;16.13;;;2.50;99.90;;;;;;4997612;28;93213;-74
2022/01/12 15:18:04;;;;;;;24.23;15.85;;;2.40;99.90;;;;;;4999392;28;89303;-72
2022/01/12 15:20:30;;;;;;;21.65;16.35;;;2.30;99.90;;;;;;4999128;28;90743;-73
2022/01/12 15:22:56;;;;;;;20.27;14.82;;;2.10;99.90;;;;;;4999722;28;89676;-74
2022/01/12 15:25:22;;;;;;;20.17;15.43;;;2.00;99.90;;;;;;4998304;28;92636;-73
2022/01/12 15:27:48;;;;;;;20.60;14.23;;;1.90;99.90;;;;;;4998783;28;90859;-72
2022/01/12 15:30:15;;;;;;;21.77;14.70;;;1.70;99.90;;;;;;4999739;28;89564;-73
2022/01/12 15:32:41;;;;;;;22.80;14.35;;;1.50;99.90;;;;;;4998421;28;89574;-75
2022/01/12 15:35:07;;;;;;;19.75;13.85;;;1.30;99.90;;;;;;4999149;28;89400;-73
2022/01/12 15:37:32;;;;;;;22.30;14.85;;;1.10;99.90;;;;;;4998875;28;92099;-73
2022/01/12 15:39:59;;;;;;;21.75;14.40;;;0.80;99.90;;;;;;4999357;28;89310;-74
2022/01/12 15:42:29;;;;;;;21.48;14.13;;;0.70;99.90;;;;;;5007263;28;89501;-74
2022/01/12 15:44:56;;;;;;;24.98;16.20;;;0.40;99.90;;;;;;5005853;28;91145;-74
2022/01/12 15:47:22;;;;;;;24.20;16.08;;;0.30;99.90;;;;;;5010320;28;89553;-74
2022/01/12 15:49:47;;;;;;;27.42;16.85;;;0.10;99.90;;;;;;5007641;28;89597;-73
2022/01/12 15:52:13;;;;;;;29.13;17.30;;;-0.10;99.90;;;;;;5007443;28;89888;-73
2022/01/12 15:54:38;;;;;;;29.83;18.60;;;-0.30;99.90;;;;;;5018003;28;89383;-73
2022/01/12 15:57:06;;;;;;;28.08;17.52;;;-0.40;99.90;;;;;;5018972;28;89258;-74
2022/01/12 15:59:32;;;;;;;28.88;18.27;;;-0.60;99.90;;;;;;5017372;28;89168;-73
2022/01/12 16:01:58;;;;;;;33.10;18.33;;;-0.70;99.90;;;;;;5017654;28;91467;-74
2022/01/12 16:04:24;;;;;;;26.90;16.90;;;-0.80;99.90;;;;;;5019264;28;89955;-75
2022/01/12 16:06:49;;;;;;;27.48;16.90;;;-0.90;99.90;;;;;;5020394;28;89080;-74
2022/01/12 16:09:15;;;;;;;25.48;16.50;;;-1.00;99.90;;;;;;5019545;28;90093;-78
2022/01/12 16:11:41;;;;;;;29.30;18.55;;;-1.10;99.90;;;;;;5018807;28;91509;-75
2022/01/12 16:14:10;;;;;;;25.65;16.77;;;-1.20;99.90;;;;;;5018055;28;92639;-78
2022/01/12 16:16:36;;;;;;;25.65;16.77;;;-1.30;99.90;;;;;;5022368;28;89401;-77
2022/01/12 16:19:07;;;;;;;25.17;16.13;;;-1.40;99.90;;;;;;5019525;28;89374;-75
2022/01/12 16:21:33;;;;;;;25.63;15.45;;;-1.40;99.90;;;;;;5020040;28;92356;-77
2022/01/12 16:23:59;;;;;;;29.20;17.48;;;-1.50;99.90;;;;;;5019825;28;91987;-77
2022/01/12 16:26:25;;;;;;;29.77;18.25;;;-1.60;99.90;;;;;;5018721;28;92971;-80
2022/01/12 16:28:51;;;;;;;30.45;18.65;;;-1.70;99.90;;;;;;5019003;28;89324;-83
2022/01/12 16:31:20;;;;;;;31.25;18.63;;;-1.70;99.90;;;;;;5024097;28;89929;-77
2022/01/12 16:33:46;;;;;;;32.55;19.58;;;-1.80;99.90;;;;;;5017873;28;91037;-76
2022/01/12 16:36:12;;;;;;;35.83;19.33;;;-1.80;99.90;;;;;;5019489;28;90671;-76
2022/01/12 16:38:38;;;;;;;59.72;24.75;;;-1.80;99.90;;;;;;5018612;28;89525;-75
2022/01/12 16:41:04;;;;;;;64.15;26.75;;;-1.90;99.90;;;;;;5018593;28;90942;-75
2022/01/12 16:43:30;;;;;;;63.85;26.10;;;-1.80;99.90;;;;;;5015872;28;93236;-77
2022/01/12 16:45:56;;;;;;;57.80;25.60;;;-1.80;99.90;;;;;;5016891;28;93143;-76
2022/01/12 16:48:21;;;;;;;57.03;25.60;;;-1.70;99.90;;;;;;5017153;28;89302;-77
2022/01/12 16:50:47;;;;;;;62.65;29.52;;;-1.70;99.90;;;;;;5017684;28;91905;-77
2022/01/12 16:53:13;;;;;;;60.05;31.02;;;-1.90;99.90;;;;;;5018116;28;90044;-79
2022/01/12 16:55:38;;;;;;;54.75;29.55;;;-1.90;99.90;;;;;;5018129;28;90087;-75
2022/01/12 16:58:06;;;;;;;49.15;27.63;;;-2.00;99.90;;;;;;5017566;28;90352;-76
2022/01/12 17:00:32;;;;;;;50.58;26.15;;;-2.00;99.90;;;;;;5016703;28;91681;-75
2022/01/12 17:02:58;;;;;;;49.13;27.67;;;-2.00;99.90;;;;;;5016924;28;90013;-76
2022/01/12 17:05:24;;;;;;;48.15;27.20;;;-2.10;99.90;;;;;;5016446;28;93094;-75
2022/01/12 17:07:50;;;;;;;54.10;29.75;;;-2.10;99.90;;;;;;5016748;28;89338;-76
2022/01/12 17:10:17;;;;;;;52.35;28.73;;;-2.10;99.90;;;;;;5017975;28;89887;-76
2022/01/12 17:12:43;;;;;;;50.58;29.52;;;-2.10;99.90;;;;;;5017854;28;89378;-75
2022/01/12 17:15:27;;;;;;;54.38;30.48;;;-2.20;99.90;;;;;;5017753;28;89936;-75
2022/01/12 17:18:28;;;;;;;52.65;29.17;;;-2.20;99.90;;;;;;5016569;28;89628;-76
2022/01/12 17:20:54;;;;;;;52.72;29.17;;;-2.20;99.90;;;;;;5018740;28;90232;-77
2022/01/12 17:23:21;;;;;;;49.72;28.70;;;-2.30;99.90;;;;;;5017140;28;91167;-76
2022/01/12 17:25:46;;;;;;;49.58;28.10;;;-2.30;99.90;;;;;;5017409;28;90810;-76
2022/01/12 17:28:15;;;;;;;49.13;27.65;;;-2.30;99.90;;;;;;5018238;28;89247;-74
2022/01/12 17:30:46;;;;;;;46.28;26.73;;;-2.40;99.90;;;;;;5017983;28;89391;-76
2022/01/12 17:33:12;;;;;;;45.30;26.95;;;-2.40;99.90;;;;;;5017574;28;90433;-75
2022/01/12 17:35:38;;;;;;;49.08;28.20;;;-2.40;99.90;;;;;;5017855;28;90151;-76
2022/01/12 17:38:08;;;;;;;51.70;29.38;;;-2.30;99.90;;;;;;5017277;28;89257;-75
2022/01/12 17:40:42;;;;;;;49.95;28.48;;;-2.30;99.90;;;;;;5018440;28;90254;-80
2022/01/12 17:43:18;;;;;;;46.50;27.45;;;-2.30;99.90;;;;;;5016874;28;89552;-74
2022/01/12 17:45:44;;;;;;;44.17;25.30;;;-2.30;99.90;;;;;;5017417;28;89314;-75
2022/01/12 17:48:18;;;;;;;44.95;25.20;;;-2.40;99.90;;;;;;5017037;28;90375;-75
2022/01/12 17:50:44;;;;;;;43.92;26.42;;;-2.40;99.90;;;;;;5017188;28;89682;-76